sensor_id;sensor_type;location;lat;lon;timestamp;P1;durP1;ratioP1;P2;durP2;ratioP2
62509;SDS011;48558;48.242;11.654;2022-10-23T00:04:12;1.35;;;1.25;;
62509;SDS011;48558;48.242;11.654;2022-10-23T00:08:26;1.05;;;1.05;;
62509;SDS011;48558;48.242;11.654;2022-10-23T00:12:48;1.85;;;1.30;;
62509;SDS011;48558;48.242;11.654;2022-10-23T00:17:01;1.88;;;1.50;;
62509;SDS011;48558;48.242;11.654;2022-10-23T00:21:14;1.50;;;1.40;;
62509;SDS011;48558;48.242;11.654;2022-10-23T00:25:28;4.15;;;1.40;;
62509;SDS011;48558;48.242;11.654;2022-10-23T00:29:41;1.33;;;1.15;;
62509;SDS011;48558;48.242;11.654;2022-10-23T00:33:55;4.20;;;1.63;;
62509;SDS011;48558;48.242;11.654;2022-10-23T00:38:08;1.48;;;1.33;;
62509;SDS011;48558;48.242;11.654;2022-10-23T00:42:21;1.27;;;1.17;;
62509;SDS011;48558;48.242;11.654;2022-10-23T00:46:35;1.65;;;1.10;;
62509;SDS011;48558;48.242;11.654;2022-10-23T00:50:49;3.58;;;1.30;;
62509;SDS011;48558;48.242;11.654;2022-10-23T00:55:01;2.30;;;1.38;;
62509;SDS011;48558;48.242;11.654;2022-10-23T00:59:15;1.40;;;1.30;;
62509;SDS011;48558;48.242;11.654;2022-10-23T01:03:27;1.00;;;1.00;;
62509;SDS011;48558;48.242;11.654;2022-10-23T01:07:51;4.10;;;1.48;;
62509;SDS011;48558;48.242;11.654;2022-10-23T01:16:31;1.15;;;1.15;;
62509;SDS011;48558;48.242;11.654;2022-10-23T01:34:22;2.25;;;1.48;;
62509;SDS011;48558;48.242;11.654;2022-10-23T01:38:45;1.67;;;1.58;;
62509;SDS011;48558;48.242;11.654;2022-10-23T01:43:11;3.38;;;1.38;;
62509;SDS011;48558;48.242;11.654;2022-10-23T01:47:29;3.92;;;1.58;;
62509;SDS011;48558;48.242;11.654;2022-10-23T01:51:46;11.73;;;1.38;;
62509;SDS011;48558;48.242;11.654;2022-10-23T01:56:02;3.03;;;1.17;;
62509;SDS011;48558;48.242;11.654;2022-10-23T02:00:18;1.30;;;1.30;;
62509;SDS011;48558;48.242;11.654;2022-10-23T02:04:42;4.30;;;1.17;;
62509;SDS011;48558;48.242;11.654;2022-10-23T02:09:00;1.23;;;1.13;;
62509;SDS011;48558;48.242;11.654;2022-10-23T02:13:28;1.50;;;1.40;;
62509;SDS011;48558;48.242;11.654;2022-10-23T02:22:18;1.38;;;1.27;;
62509;SDS011;48558;48.242;11.654;2022-10-23T02:26:36;1.35;;;1.27;;
62509;SDS011;48558;48.242;11.654;2022-10-23T02:30:52;1.40;;;1.30;;
62509;SDS011;48558;48.242;11.654;2022-10-23T02:35:08;1.10;;;1.10;;
62509;SDS011;48558;48.242;11.654;2022-10-23T02:39:21;1.23;;;1.13;;
62509;SDS011;48558;48.242;11.654;2022-10-23T02:43:42;1.10;;;1.10;;
62509;SDS011;48558;48.242;11.654;2022-10-23T02:52:41;1.30;;;1.20;;
62509;SDS011;48558;48.242;11.654;2022-10-23T03:01:45;1.27;;;1.17;;
62509;SDS011;48558;48.242;11.654;2022-10-23T03:06:08;1.55;;;1.30;;
62509;SDS011;48558;48.242;11.654;2022-10-23T03:10:24;1.38;;;1.27;;
62509;SDS011;48558;48.242;11.654;2022-10-23T03:14:36;1.10;;;1.10;;
62509;SDS011;48558;48.242;11.654;2022-10-23T03:18:59;3.13;;;1.05;;
62509;SDS011;48558;48.242;11.654;2022-10-23T03:23:12;1.10;;;1.10;;
62509;SDS011;48558;48.242;11.654;2022-10-23T03:27:24;0.93;;;0.85;;
62509;SDS011;48558;48.242;11.654;2022-10-23T03:31:42;1.15;;;1.15;;
62509;SDS011;48558;48.242;11.654;2022-10-23T03:35:54;1.10;;;1.10;;
62509;SDS011;48558;48.242;11.654;2022-10-23T03:40:07;1.17;;;1.13;;
62509;SDS011;48558;48.242;11.654;2022-10-23T03:44:21;1.10;;;1.10;;
62509;SDS011;48558;48.242;11.654;2022-10-23T03:48:34;1.42;;;1.33;;
62509;SDS011;48558;48.242;11.654;2022-10-23T03:52:50;1.10;;;1.10;;
62509;SDS011;48558;48.242;11.654;2022-10-23T03:57:02;1.17;;;1.10;;
62509;SDS011;48558;48.242;11.654;2022-10-23T04:01:15;0.93;;;0.93;;
62509;SDS011;48558;48.242;11.654;2022-10-23T04:05:27;0.82;;;0.82;;
62509;SDS011;48558;48.242;11.654;2022-10-23T04:09:39;0.93;;;0.93;;
62509;SDS011;48558;48.242;11.654;2022-10-23T04:13:52;1.02;;;1.02;;
62509;SDS011;48558;48.242;11.654;2022-10-23T04:18:04;0.80;;;0.80;;
62509;SDS011;48558;48.242;11.654;2022-10-23T04:22:16;0.90;;;0.90;;
62509;SDS011;48558;48.242;11.654;2022-10-23T04:26:29;0.82;;;0.82;;
62509;SDS011;48558;48.242;11.654;2022-10-23T04:30:41;1.02;;;1.02;;
62509;SDS011;48558;48.242;11.654;2022-10-23T04:34:53;1.00;;;1.00;;
62509;SDS011;48558;48.242;11.654;2022-10-23T04:39:06;2.63;;;1.08;;
62509;SDS011;48558;48.242;11.654;2022-10-23T04:43:18;5.18;;;1.30;;
62509;SDS011;48558;48.242;11.654;2022-10-23T04:47:30;1.38;;;1.08;;
62509;SDS011;48558;48.242;11.654;2022-10-23T04:51:42;4.18;;;1.20;;
62509;SDS011;48558;48.242;11.654;2022-10-23T04:55:55;6.03;;;1.00;;
62509;SDS011;48558;48.242;11.654;2022-10-23T05:00:11;1.27;;;1.17;;
62509;SDS011;48558;48.242;11.654;2022-10-23T05:04:25;1.30;;;1.20;;
62509;SDS011;48558;48.242;11.654;2022-10-23T05:08:38;1.05;;;1.05;;
62509;SDS011;48558;48.242;11.654;2022-10-23T05:12:50;1.15;;;1.08;;
62509;SDS011;48558;48.242;11.654;2022-10-23T05:17:13;1.63;;;0.90;;
62509;SDS011;48558;48.242;11.654;2022-10-23T05:21:29;1.13;;;1.10;;
62509;SDS011;48558;48.242;11.654;2022-10-23T05:25:44;1.10;;;1.10;;
62509;SDS011;48558;48.242;11.654;2022-10-23T05:29:56;1.25;;;1.13;;
62509;SDS011;48558;48.242;11.654;2022-10-23T05:34:10;1.10;;;1.00;;
62509;SDS011;48558;48.242;11.654;2022-10-23T05:38:25;0.90;;;0.90;;
62509;SDS011;48558;48.242;11.654;2022-10-23T05:42:40;0.90;;;0.90;;
62509;SDS011;48558;48.242;11.654;2022-10-23T05:46:53;1.00;;;1.00;;
62509;SDS011;48558;48.242;11.654;2022-10-23T05:51:15;3.05;;;1.13;;
62509;SDS011;48558;48.242;11.654;2022-10-23T05:55:32;3.10;;;1.52;;
62509;SDS011;48558;48.242;11.654;2022-10-23T05:59:44;1.17;;;1.17;;
62509;SDS011;48558;48.242;11.654;2022-10-23T06:03:59;1.33;;;1.23;;
62509;SDS011;48558;48.242;11.654;2022-10-23T06:08:12;1.25;;;1.20;;
62509;SDS011;48558;48.242;11.654;2022-10-23T06:12:24;0.98;;;0.93;;
62509;SDS011;48558;48.242;11.654;2022-10-23T06:16:36;1.10;;;1.10;;
62509;SDS011;48558;48.242;11.654;2022-10-23T06:20:49;1.30;;;1.30;;
62509;SDS011;48558;48.242;11.654;2022-10-23T06:25:01;2.00;;;1.90;;
62509;SDS011;48558;48.242;11.654;2022-10-23T06:29:14;2.28;;;2.08;;
62509;SDS011;48558;48.242;11.654;2022-10-23T06:33:26;1.80;;;1.70;;
62509;SDS011;48558;48.242;11.654;2022-10-23T06:37:39;3.72;;;1.60;;
62509;SDS011;48558;48.242;11.654;2022-10-23T06:41:51;1.35;;;1.30;;
62509;SDS011;48558;48.242;11.654;2022-10-23T06:46:04;0.98;;;0.98;;
62509;SDS011;48558;48.242;11.654;2022-10-23T06:50:17;3.45;;;1.30;;
62509;SDS011;48558;48.242;11.654;2022-10-23T06:54:30;1.00;;;1.00;;
62509;SDS011;48558;48.242;11.654;2022-10-23T06:58:42;1.10;;;1.10;;
62509;SDS011;48558;48.242;11.654;2022-10-23T07:02:54;1.02;;;1.02;;
62509;SDS011;48558;48.242;11.654;2022-10-23T07:07:07;1.10;;;1.10;;
62509;SDS011;48558;48.242;11.654;2022-10-23T07:11:19;1.10;;;1.10;;
62509;SDS011;48558;48.242;11.654;2022-10-23T07:15:31;1.20;;;1.20;;
62509;SDS011;48558;48.242;11.654;2022-10-23T07:19:44;1.13;;;1.08;;
62509;SDS011;48558;48.242;11.654;2022-10-23T07:23:58;1.23;;;1.13;;
62509;SDS011;48558;48.242;11.654;2022-10-23T07:28:10;1.00;;;1.00;;
62509;SDS011;48558;48.242;11.654;2022-10-23T07:32:22;1.17;;;1.13;;
62509;SDS011;48558;48.242;11.654;2022-10-23T07:36:35;1.52;;;1.10;;
62509;SDS011;48558;48.242;11.654;2022-10-23T07:40:48;1.02;;;1.02;;
62509;SDS011;48558;48.242;11.654;2022-10-23T07:45:00;2.72;;;1.00;;
62509;SDS011;48558;48.242;11.654;2022-10-23T07:49:15;1.25;;;1.20;;
62509;SDS011;48558;48.242;11.654;2022-10-23T07:53:27;3.60;;;1.17;;
62509;SDS011;48558;48.242;11.654;2022-10-23T07:57:40;2.00;;;1.20;;
62509;SDS011;48558;48.242;11.654;2022-10-23T08:01:52;1.17;;;1.10;;
62509;SDS011;48558;48.242;11.654;2022-10-23T08:06:07;1.30;;;1.20;;
62509;SDS011;48558;48.242;11.654;2022-10-23T08:10:20;1.02;;;0.82;;
62509;SDS011;48558;48.242;11.654;2022-10-23T08:14:32;0.75;;;0.75;;
62509;SDS011;48558;48.242;11.654;2022-10-23T08:18:44;2.45;;;0.90;;
62509;SDS011;48558;48.242;11.654;2022-10-23T08:22:59;2.70;;;0.90;;
62509;SDS011;48558;48.242;11.654;2022-10-23T08:27:11;3.63;;;1.17;;
62509;SDS011;48558;48.242;11.654;2022-10-23T08:31:32;0.82;;;0.82;;
62509;SDS011;48558;48.242;11.654;2022-10-23T08:35:44;0.85;;;0.85;;
62509;SDS011;48558;48.242;11.654;2022-10-23T08:39:57;1.25;;;1.05;;
62509;SDS011;48558;48.242;11.654;2022-10-23T08:48:41;1.15;;;0.90;;
62509;SDS011;48558;48.242;11.654;2022-10-23T08:53:21;3.50;;;1.55;;
62509;SDS011;48558;48.242;11.654;2022-10-23T08:57:42;0.70;;;0.70;;
62509;SDS011;48558;48.242;11.654;2022-10-23T09:02:08;0.90;;;0.90;;
62509;SDS011;48558;48.242;11.654;2022-10-23T09:19:31;2.95;;;1.20;;
62509;SDS011;48558;48.242;11.654;2022-10-23T09:23:54;0.70;;;0.70;;
62509;SDS011;48558;48.242;11.654;2022-10-23T09:28:18;1.55;;;0.70;;
62509;SDS011;48558;48.242;11.654;2022-10-23T09:32:33;0.85;;;0.70;;
62509;SDS011;48558;48.242;11.654;2022-10-23T09:36:55;4.50;;;0.90;;
62509;SDS011;48558;48.242;11.654;2022-10-23T09:41:13;0.93;;;0.90;;
62509;SDS011;48558;48.242;11.654;2022-10-23T09:45:34;0.63;;;0.63;;
62509;SDS011;48558;48.242;11.654;2022-10-23T09:49:47;0.70;;;0.70;;
62509;SDS011;48558;48.242;11.654;2022-10-23T09:54:01;1.60;;;0.88;;
62509;SDS011;48558;48.242;11.654;2022-10-23T09:58:33;0.77;;;0.70;;
62509;SDS011;48558;48.242;11.654;2022-10-23T10:07:19;0.55;;;0.55;;
62509;SDS011;48558;48.242;11.654;2022-10-23T10:11:45;1.10;;;0.60;;
62509;SDS011;48558;48.242;11.654;2022-10-23T10:16:00;0.52;;;0.52;;
62509;SDS011;48558;48.242;11.654;2022-10-23T10:25:16;2.92;;;1.20;;
62509;SDS011;48558;48.242;11.654;2022-10-23T10:34:28;0.80;;;0.80;;
62509;SDS011;48558;48.242;11.654;2022-10-23T10:47:25;0.63;;;0.63;;
62509;SDS011;48558;48.242;11.654;2022-10-23T10:56:16;2.30;;;0.80;;
62509;SDS011;48558;48.242;11.654;2022-10-23T11:00:32;4.05;;;1.05;;
62509;SDS011;48558;48.242;11.654;2022-10-23T11:04:55;3.72;;;0.70;;
62509;SDS011;48558;48.242;11.654;2022-10-23T11:09:21;0.70;;;0.70;;
62509;SDS011;48558;48.242;11.654;2022-10-23T11:13:37;1.25;;;0.70;;
62509;SDS011;48558;48.242;11.654;2022-10-23T11:17:57;2.72;;;1.42;;
62509;SDS011;48558;48.242;11.654;2022-10-23T11:22:29;2.35;;;0.65;;
62509;SDS011;48558;48.242;11.654;2022-10-23T11:36:17;0.70;;;0.70;;
62509;SDS011;48558;48.242;11.654;2022-10-23T11:40:29;2.33;;;0.85;;
62509;SDS011;48558;48.242;11.654;2022-10-23T11:44:46;0.73;;;0.73;;
62509;SDS011;48558;48.242;11.654;2022-10-23T11:49:00;2.50;;;0.93;;
62509;SDS011;48558;48.242;11.654;2022-10-23T11:53:25;0.50;;;0.50;;
62509;SDS011;48558;48.242;11.654;2022-10-23T11:58:04;0.80;;;0.80;;
62509;SDS011;48558;48.242;11.654;2022-10-23T12:02:34;0.82;;;0.80;;
62509;SDS011;48558;48.242;11.654;2022-10-23T12:06:54;0.80;;;0.70;;
62509;SDS011;48558;48.242;11.654;2022-10-23T12:15:59;0.80;;;0.80;;
62509;SDS011;48558;48.242;11.654;2022-10-23T12:38:20;0.70;;;0.70;;
62509;SDS011;48558;48.242;11.654;2022-10-23T12:42:35;6.95;;;0.95;;
62509;SDS011;48558;48.242;11.654;2022-10-23T12:46:53;2.40;;;0.90;;
62509;SDS011;48558;48.242;11.654;2022-10-23T12:51:14;1.25;;;0.80;;
62509;SDS011;48558;48.242;11.654;2022-10-23T13:00:19;2.60;;;0.70;;
62509;SDS011;48558;48.242;11.654;2022-10-23T13:04:34;1.90;;;0.93;;
62509;SDS011;48558;48.242;11.654;2022-10-23T13:08:47;0.82;;;0.80;;
62509;SDS011;48558;48.242;11.654;2022-10-23T13:13:02;1.17;;;1.00;;
62509;SDS011;48558;48.242;11.654;2022-10-23T13:17:16;2.00;;;0.88;;
62509;SDS011;48558;48.242;11.654;2022-10-23T13:21:29;0.50;;;0.50;;
62509;SDS011;48558;48.242;11.654;2022-10-23T13:25:41;1.88;;;0.52;;
62509;SDS011;48558;48.242;11.654;2022-10-23T13:29:55;2.25;;;0.82;;
62509;SDS011;48558;48.242;11.654;2022-10-23T13:34:13;0.80;;;0.80;;
62509;SDS011;48558;48.242;11.654;2022-10-23T13:38:33;1.70;;;0.88;;
62509;SDS011;48558;48.242;11.654;2022-10-23T13:42:54;0.73;;;0.70;;
62509;SDS011;48558;48.242;11.654;2022-10-23T13:47:17;1.00;;;0.68;;
62509;SDS011;48558;48.242;11.654;2022-10-23T13:51:29;0.63;;;0.63;;
62509;SDS011;48558;48.242;11.654;2022-10-23T13:55:53;1.15;;;0.68;;
62509;SDS011;48558;48.242;11.654;2022-10-23T14:00:13;0.70;;;0.70;;
62509;SDS011;48558;48.242;11.654;2022-10-23T14:04:26;0.70;;;0.70;;
62509;SDS011;48558;48.242;11.654;2022-10-23T14:08:38;0.65;;;0.65;;
62509;SDS011;48558;48.242;11.654;2022-10-23T14:12:51;1.25;;;0.60;;
62509;SDS011;48558;48.242;11.654;2022-10-23T14:17:05;0.50;;;0.50;;
62509;SDS011;48558;48.242;11.654;2022-10-23T14:21:18;0.70;;;0.70;;
62509;SDS011;48558;48.242;11.654;2022-10-23T14:25:32;1.30;;;0.70;;
62509;SDS011;48558;48.242;11.654;2022-10-23T14:29:52;0.80;;;0.80;;
62509;SDS011;48558;48.242;11.654;2022-10-23T14:34:05;0.93;;;0.80;;
62509;SDS011;48558;48.242;11.654;2022-10-23T14:38:17;4.15;;;1.15;;
62509;SDS011;48558;48.242;11.654;2022-10-23T14:42:29;0.70;;;0.70;;
62509;SDS011;48558;48.242;11.654;2022-10-23T14:46:45;1.77;;;0.65;;
62509;SDS011;48558;48.242;11.654;2022-10-23T14:50:57;1.73;;;0.77;;
62509;SDS011;48558;48.242;11.654;2022-10-23T14:55:09;0.80;;;0.80;;
62509;SDS011;48558;48.242;11.654;2022-10-23T14:59:22;5.07;;;0.98;;
62509;SDS011;48558;48.242;11.654;2022-10-23T15:03:34;2.92;;;0.77;;
62509;SDS011;48558;48.242;11.654;2022-10-23T15:07:46;0.65;;;0.65;;
62509;SDS011;48558;48.242;11.654;2022-10-23T15:11:59;0.77;;;0.77;;
62509;SDS011;48558;48.242;11.654;2022-10-23T15:16:12;0.50;;;0.50;;
62509;SDS011;48558;48.242;11.654;2022-10-23T15:20:25;1.02;;;0.93;;
62509;SDS011;48558;48.242;11.654;2022-10-23T15:24:47;0.85;;;0.70;;
62509;SDS011;48558;48.242;11.654;2022-10-23T15:29:10;3.22;;;0.80;;
62509;SDS011;48558;48.242;11.654;2022-10-23T15:33:23;0.82;;;0.82;;
62509;SDS011;48558;48.242;11.654;2022-10-23T15:37:36;2.17;;;2.00;;
62509;SDS011;48558;48.242;11.654;2022-10-23T15:41:58;1.88;;;1.33;;
62509;SDS011;48558;48.242;11.654;2022-10-23T15:46:11;1.20;;;1.20;;
62509;SDS011;48558;48.242;11.654;2022-10-23T15:50:23;1.50;;;1.40;;
62509;SDS011;48558;48.242;11.654;2022-10-23T15:54:36;1.60;;;1.50;;
62509;SDS011;48558;48.242;11.654;2022-10-23T15:58:48;3.67;;;1.48;;
62509;SDS011;48558;48.242;11.654;2022-10-23T16:03:01;1.60;;;1.40;;
62509;SDS011;48558;48.242;11.654;2022-10-23T16:07:13;1.65;;;1.30;;
62509;SDS011;48558;48.242;11.654;2022-10-23T16:11:26;1.65;;;1.30;;
62509;SDS011;48558;48.242;11.654;2022-10-23T16:15:41;5.20;;;2.15;;
62509;SDS011;48558;48.242;11.654;2022-10-23T16:19:53;6.50;;;2.78;;
62509;SDS011;48558;48.242;11.654;2022-10-23T16:24:06;5.53;;;3.05;;
62509;SDS011;48558;48.242;11.654;2022-10-23T16:28:19;3.60;;;2.78;;
62509;SDS011;48558;48.242;11.654;2022-10-23T16:32:32;4.03;;;2.95;;
62509;SDS011;48558;48.242;11.654;2022-10-23T16:36:45;3.70;;;2.83;;
62509;SDS011;48558;48.242;11.654;2022-10-23T16:40:58;3.38;;;2.55;;
62509;SDS011;48558;48.242;11.654;2022-10-23T16:45:16;3.78;;;2.47;;
62509;SDS011;48558;48.242;11.654;2022-10-23T16:49:28;4.43;;;2.50;;
62509;SDS011;48558;48.242;11.654;2022-10-23T16:53:48;3.17;;;2.42;;
62509;SDS011;48558;48.242;11.654;2022-10-23T16:58:01;4.80;;;2.55;;
62509;SDS011;48558;48.242;11.654;2022-10-23T17:02:14;2.55;;;2.35;;
62509;SDS011;48558;48.242;11.654;2022-10-23T17:06:28;3.60;;;2.42;;
62509;SDS011;48558;48.242;11.654;2022-10-23T17:10:42;2.92;;;2.63;;
62509;SDS011;48558;48.242;11.654;2022-10-23T17:14:54;4.68;;;2.83;;
62509;SDS011;48558;48.242;11.654;2022-10-23T17:19:07;2.70;;;2.50;;
62509;SDS011;48558;48.242;11.654;2022-10-23T17:23:36;4.05;;;2.30;;
62509;SDS011;48558;48.242;11.654;2022-10-23T17:27:49;4.57;;;3.15;;
62509;SDS011;48558;48.242;11.654;2022-10-23T17:32:01;3.03;;;2.75;;
62509;SDS011;48558;48.242;11.654;2022-10-23T17:36:14;4.38;;;3.40;;
62509;SDS011;48558;48.242;11.654;2022-10-23T17:40:28;7.70;;;4.35;;
62509;SDS011;48558;48.242;11.654;2022-10-23T17:44:41;4.85;;;3.70;;
62509;SDS011;48558;48.242;11.654;2022-10-23T17:48:57;4.15;;;3.75;;
62509;SDS011;48558;48.242;11.654;2022-10-23T17:53:15;7.18;;;4.22;;
62509;SDS011;48558;48.242;11.654;2022-10-23T17:57:27;4.35;;;3.90;;
62509;SDS011;48558;48.242;11.654;2022-10-23T18:01:40;5.47;;;3.70;;
62509;SDS011;48558;48.242;11.654;2022-10-23T18:05:57;4.30;;;3.35;;
62509;SDS011;48558;48.242;11.654;2022-10-23T18:10:16;4.10;;;3.50;;
62509;SDS011;48558;48.242;11.654;2022-10-23T18:14:28;4.18;;;3.35;;
62509;SDS011;48558;48.242;11.654;2022-10-23T18:18:43;8.27;;;2.85;;
62509;SDS011;48558;48.242;11.654;2022-10-23T18:23:00;4.78;;;3.38;;
62509;SDS011;48558;48.242;11.654;2022-10-23T18:27:12;3.83;;;3.47;;
62509;SDS011;48558;48.242;11.654;2022-10-23T18:31:25;4.05;;;3.65;;
62509;SDS011;48558;48.242;11.654;2022-10-23T18:35:41;5.55;;;3.65;;
62509;SDS011;48558;48.242;11.654;2022-10-23T18:39:53;3.05;;;2.75;;
62509;SDS011;48558;48.242;11.654;2022-10-23T18:44:06;3.40;;;3.10;;
62509;SDS011;48558;48.242;11.654;2022-10-23T18:48:19;3.53;;;2.80;;
62509;SDS011;48558;48.242;11.654;2022-10-23T18:52:31;3.08;;;2.78;;
62509;SDS011;48558;48.242;11.654;2022-10-23T18:56:43;3.40;;;3.10;;
62509;SDS011;48558;48.242;11.654;2022-10-23T19:00:56;6.68;;;3.15;;
62509;SDS011;48558;48.242;11.654;2022-10-23T19:05:08;3.58;;;3.20;;
62509;SDS011;48558;48.242;11.654;2022-10-23T19:09:21;4.05;;;3.40;;
62509;SDS011;48558;48.242;11.654;2022-10-23T19:13:33;4.13;;;3.72;;
62509;SDS011;48558;48.242;11.654;2022-10-23T19:17:49;4.22;;;3.25;;
62509;SDS011;48558;48.242;11.654;2022-10-23T19:22:05;6.90;;;3.25;;
62509;SDS011;48558;48.242;11.654;2022-10-23T19:26:21;3.22;;;2.80;;
62509;SDS011;48558;48.242;11.654;2022-10-23T19:30:33;3.28;;;2.70;;
62509;SDS011;48558;48.242;11.654;2022-10-23T19:34:45;4.20;;;2.70;;
62509;SDS011;48558;48.242;11.654;2022-10-23T19:38:57;4.40;;;2.65;;
62509;SDS011;48558;48.242;11.654;2022-10-23T19:43:20;3.95;;;2.42;;
62509;SDS011;48558;48.242;11.654;2022-10-23T19:47:32;2.53;;;2.33;;
62509;SDS011;48558;48.242;11.654;2022-10-23T19:51:46;7.30;;;2.88;;
62509;SDS011;48558;48.242;11.654;2022-10-23T19:56:05;3.47;;;3.05;;
62509;SDS011;48558;48.242;11.654;2022-10-23T20:00:19;3.08;;;2.72;;
62509;SDS011;48558;48.242;11.654;2022-10-23T20:04:31;6.05;;;2.30;;
62509;SDS011;48558;48.242;11.654;2022-10-23T20:08:45;4.90;;;2.80;;
62509;SDS011;48558;48.242;11.654;2022-10-23T20:12:57;2.67;;;2.47;;
62509;SDS011;48558;48.242;11.654;2022-10-23T20:17:29;3.60;;;2.50;;
62509;SDS011;48558;48.242;11.654;2022-10-23T20:21:42;7.68;;;2.80;;
62509;SDS011;48558;48.242;11.654;2022-10-23T20:26:08;4.90;;;2.55;;
62509;SDS011;48558;48.242;11.654;2022-10-23T20:30:22;3.45;;;2.70;;
62509;SDS011;48558;48.242;11.654;2022-10-23T20:34:34;2.70;;;2.50;;
62509;SDS011;48558;48.242;11.654;2022-10-23T20:38:47;2.38;;;2.17;;
62509;SDS011;48558;48.242;11.654;2022-10-23T20:42:59;3.83;;;2.38;;
62509;SDS011;48558;48.242;11.654;2022-10-23T20:47:22;2.15;;;1.95;;
62509;SDS011;48558;48.242;11.654;2022-10-23T20:51:34;6.47;;;2.42;;
62509;SDS011;48558;48.242;11.654;2022-10-23T20:55:47;3.15;;;2.65;;
62509;SDS011;48558;48.242;11.654;2022-10-23T20:59:59;3.83;;;2.97;;
62509;SDS011;48558;48.242;11.654;2022-10-23T21:04:14;3.83;;;3.15;;
62509;SDS011;48558;48.242;11.654;2022-10-23T21:08:27;4.78;;;3.03;;
62509;SDS011;48558;48.242;11.654;2022-10-23T21:12:39;4.25;;;2.92;;
62509;SDS011;48558;48.242;11.654;2022-10-23T21:16:52;3.38;;;3.05;;
62509;SDS011;48558;48.242;11.654;2022-10-23T21:21:15;2.60;;;2.40;;
62509;SDS011;48558;48.242;11.654;2022-10-23T21:25:30;2.80;;;2.60;;
62509;SDS011;48558;48.242;11.654;2022-10-23T21:29:42;7.55;;;2.63;;
62509;SDS011;48558;48.242;11.654;2022-10-23T21:33:54;3.83;;;2.80;;
62509;SDS011;48558;48.242;11.654;2022-10-23T21:38:07;2.80;;;2.60;;
62509;SDS011;48558;48.242;11.654;2022-10-23T21:42:19;4.00;;;2.35;;
62509;SDS011;48558;48.242;11.654;2022-10-23T21:46:32;5.20;;;2.65;;
62509;SDS011;48558;48.242;11.654;2022-10-23T21:50:45;2.78;;;2.40;;
62509;SDS011;48558;48.242;11.654;2022-10-23T21:55:03;4.03;;;2.40;;
62509;SDS011;48558;48.242;11.654;2022-10-23T21:59:17;2.75;;;2.38;;
62509;SDS011;48558;48.242;11.654;2022-10-23T22:03:36;2.47;;;2.28;;
62509;SDS011;48558;48.242;11.654;2022-10-23T22:07:48;4.75;;;2.65;;
62509;SDS011;48558;48.242;11.654;2022-10-23T22:12:00;4.18;;;2.60;;
62509;SDS011;48558;48.242;11.654;2022-10-23T22:16:13;4.75;;;2.55;;
62509;SDS011;48558;48.242;11.654;2022-10-23T22:20:32;4.28;;;2.20;;
62509;SDS011;48558;48.242;11.654;2022-10-23T22:24:45;5.07;;;2.65;;
62509;SDS011;48558;48.242;11.654;2022-10-23T22:29:08;3.95;;;2.65;;
62509;SDS011;48558;48.242;11.654;2022-10-23T22:33:32;4.45;;;2.55;;
62509;SDS011;48558;48.242;11.654;2022-10-23T22:37:45;5.45;;;2.63;;
62509;SDS011;48558;48.242;11.654;2022-10-23T22:41:57;7.60;;;2.78;;
62509;SDS011;48558;48.242;11.654;2022-10-23T22:46:13;6.53;;;2.45;;
62509;SDS011;48558;48.242;11.654;2022-10-23T22:50:29;6.63;;;2.58;;
62509;SDS011;48558;48.242;11.654;2022-10-23T22:54:41;9.05;;;2.80;;
62509;SDS011;48558;48.242;11.654;2022-10-23T22:58:54;6.85;;;2.42;;
62509;SDS011;48558;48.242;11.654;2022-10-23T23:03:07;9.30;;;2.30;;
62509;SDS011;48558;48.242;11.654;2022-10-23T23:07:19;2.30;;;1.95;;
62509;SDS011;48558;48.242;11.654;2022-10-23T23:11:32;11.95;;;2.10;;
62509;SDS011;48558;48.242;11.654;2022-10-23T23:16:02;7.85;;;2.00;;
62509;SDS011;48558;48.242;11.654;2022-10-23T23:20:15;5.15;;;2.55;;
62509;SDS011;48558;48.242;11.654;2022-10-23T23:24:27;5.07;;;2.22;;
62509;SDS011;48558;48.242;11.654;2022-10-23T23:28:40;8.40;;;2.10;;
62509;SDS011;48558;48.242;11.654;2022-10-23T23:32:52;10.95;;;2.67;;
62509;SDS011;48558;48.242;11.654;2022-10-23T23:37:11;7.47;;;1.67;;
62509;SDS011;48558;48.242;11.654;2022-10-23T23:41:24;7.78;;;1.70;;
62509;SDS011;48558;48.242;11.654;2022-10-23T23:45:37;6.65;;;1.63;;
62509;SDS011;48558;48.242;11.654;2022-10-23T23:49:49;5.80;;;1.90;;
62509;SDS011;48558;48.242;11.654;2022-10-23T23:54:02;5.00;;;1.55;;
62509;SDS011;48558;48.242;11.654;2022-10-23T23:58:14;4.82;;;1.35;;
